sensor_id;sensor_type;location;lat;lon;timestamp;P1;durP1;ratioP1;P2;durP2;ratioP2
77775;SDS011;66965;43.328;6.668;2023-04-15T00:01:22;2.40;;;0.85;;
77775;SDS011;66965;43.328;6.668;2023-04-15T00:03:49;2.70;;;0.88;;
77775;SDS011;66965;43.328;6.668;2023-04-15T00:06:16;2.30;;;0.80;;
77775;SDS011;66965;43.328;6.668;2023-04-15T00:08:43;0.98;;;0.60;;
77775;SDS011;66965;43.328;6.668;2023-04-15T00:11:09;1.05;;;0.57;;
77775;SDS011;66965;43.328;6.668;2023-04-15T00:13:35;1.85;;;0.65;;
77775;SDS011;66965;43.328;6.668;2023-04-15T00:16:00;1.13;;;0.40;;
77775;SDS011;66965;43.328;6.668;2023-04-15T00:18:26;1.98;;;0.63;;
77775;SDS011;66965;43.328;6.668;2023-04-15T00:20:53;1.98;;;0.50;;
77775;SDS011;66965;43.328;6.668;2023-04-15T00:23:19;1.38;;;0.60;;
77775;SDS011;66965;43.328;6.668;2023-04-15T00:25:44;2.80;;;0.90;;
77775;SDS011;66965;43.328;6.668;2023-04-15T00:28:09;2.58;;;0.50;;
77775;SDS011;66965;43.328;6.668;2023-04-15T00:30:35;1.85;;;0.75;;
77775;SDS011;66965;43.328;6.668;2023-04-15T00:33:01;1.65;;;0.60;;
77775;SDS011;66965;43.328;6.668;2023-04-15T00:37:52;1.27;;;0.50;;
77775;SDS011;66965;43.328;6.668;2023-04-15T00:40:19;0.98;;;0.50;;
77775;SDS011;66965;43.328;6.668;2023-04-15T00:42:45;1.15;;;0.40;;
77775;SDS011;66965;43.328;6.668;2023-04-15T00:45:11;0.93;;;0.50;;
77775;SDS011;66965;43.328;6.668;2023-04-15T00:47:37;1.73;;;0.60;;
77775;SDS011;66965;43.328;6.668;2023-04-15T00:50:05;2.22;;;0.40;;
77775;SDS011;66965;43.328;6.668;2023-04-15T00:52:31;0.82;;;0.40;;
77775;SDS011;66965;43.328;6.668;2023-04-15T00:54:57;0.55;;;0.43;;
77775;SDS011;66965;43.328;6.668;2023-04-15T00:57:23;0.65;;;0.47;;
77775;SDS011;66965;43.328;6.668;2023-04-15T00:59:50;1.15;;;0.50;;
77775;SDS011;66965;43.328;6.668;2023-04-15T01:02:16;1.75;;;0.70;;
77775;SDS011;66965;43.328;6.668;2023-04-15T01:04:42;1.27;;;0.50;;
77775;SDS011;66965;43.328;6.668;2023-04-15T01:07:07;1.38;;;0.65;;
77775;SDS011;66965;43.328;6.668;2023-04-15T01:09:33;0.95;;;0.60;;
77775;SDS011;66965;43.328;6.668;2023-04-15T01:11:58;2.10;;;0.60;;
77775;SDS011;66965;43.328;6.668;2023-04-15T01:14:24;0.82;;;0.40;;
77775;SDS011;66965;43.328;6.668;2023-04-15T01:16:49;1.27;;;0.50;;
77775;SDS011;66965;43.328;6.668;2023-04-15T01:19:17;3.17;;;0.50;;
77775;SDS011;66965;43.328;6.668;2023-04-15T01:21:42;1.55;;;0.47;;
77775;SDS011;66965;43.328;6.668;2023-04-15T01:26:38;1.55;;;0.50;;
77775;SDS011;66965;43.328;6.668;2023-04-15T01:29:04;2.63;;;0.75;;
77775;SDS011;66965;43.328;6.668;2023-04-15T01:31:30;1.10;;;0.40;;
77775;SDS011;66965;43.328;6.668;2023-04-15T01:33:56;3.38;;;0.68;;
77775;SDS011;66965;43.328;6.668;2023-04-15T01:36:22;1.10;;;0.50;;
77775;SDS011;66965;43.328;6.668;2023-04-15T01:38:47;2.30;;;0.55;;
77775;SDS011;66965;43.328;6.668;2023-04-15T01:41:13;1.55;;;0.52;;
77775;SDS011;66965;43.328;6.668;2023-04-15T01:43:38;1.85;;;0.47;;
77775;SDS011;66965;43.328;6.668;2023-04-15T01:46:04;1.00;;;0.43;;
77775;SDS011;66965;43.328;6.668;2023-04-15T01:48:30;0.73;;;0.40;;
77775;SDS011;66965;43.328;6.668;2023-04-15T01:50:56;5.28;;;1.17;;
77775;SDS011;66965;43.328;6.668;2023-04-15T01:53:23;2.25;;;0.90;;
77775;SDS011;66965;43.328;6.668;2023-04-15T01:55:51;1.65;;;0.60;;
77775;SDS011;66965;43.328;6.668;2023-04-15T01:58:17;2.55;;;0.57;;
77775;SDS011;66965;43.328;6.668;2023-04-15T02:00:43;1.15;;;0.47;;
77775;SDS011;66965;43.328;6.668;2023-04-15T02:03:08;0.93;;;0.50;;
77775;SDS011;66965;43.328;6.668;2023-04-15T02:05:34;1.33;;;0.47;;
77775;SDS011;66965;43.328;6.668;2023-04-15T02:07:59;1.85;;;0.50;;
77775;SDS011;66965;43.328;6.668;2023-04-15T02:10:25;1.75;;;0.60;;
77775;SDS011;66965;43.328;6.668;2023-04-15T02:12:51;2.40;;;0.68;;
77775;SDS011;66965;43.328;6.668;2023-04-15T02:15:16;3.03;;;0.90;;
77775;SDS011;66965;43.328;6.668;2023-04-15T02:17:42;0.65;;;0.40;;
77775;SDS011;66965;43.328;6.668;2023-04-15T02:20:10;2.10;;;0.70;;
77775;SDS011;66965;43.328;6.668;2023-04-15T02:22:36;0.80;;;0.60;;
77775;SDS011;66965;43.328;6.668;2023-04-15T02:25:01;1.60;;;0.63;;
77775;SDS011;66965;43.328;6.668;2023-04-15T02:27:27;3.75;;;0.70;;
77775;SDS011;66965;43.328;6.668;2023-04-15T02:29:53;3.60;;;0.88;;
77775;SDS011;66965;43.328;6.668;2023-04-15T02:32:18;2.92;;;0.70;;
77775;SDS011;66965;43.328;6.668;2023-04-15T02:34:44;2.03;;;0.60;;
77775;SDS011;66965;43.328;6.668;2023-04-15T02:37:11;0.57;;;0.38;;
77775;SDS011;66965;43.328;6.668;2023-04-15T02:39:37;1.48;;;0.43;;
77775;SDS011;66965;43.328;6.668;2023-04-15T02:42:03;1.67;;;0.52;;
77775;SDS011;66965;43.328;6.668;2023-04-15T02:44:30;0.75;;;0.28;;
77775;SDS011;66965;43.328;6.668;2023-04-15T02:46:56;2.00;;;0.50;;
77775;SDS011;66965;43.328;6.668;2023-04-15T02:49:23;2.42;;;0.52;;
77775;SDS011;66965;43.328;6.668;2023-04-15T02:54:18;2.15;;;0.60;;
77775;SDS011;66965;43.328;6.668;2023-04-15T02:56:44;1.35;;;0.60;;
77775;SDS011;66965;43.328;6.668;2023-04-15T02:59:10;1.50;;;0.60;;
77775;SDS011;66965;43.328;6.668;2023-04-15T03:01:36;2.47;;;0.77;;
77775;SDS011;66965;43.328;6.668;2023-04-15T03:04:02;1.27;;;0.43;;
77775;SDS011;66965;43.328;6.668;2023-04-15T03:06:27;2.33;;;0.70;;
77775;SDS011;66965;43.328;6.668;2023-04-15T03:08:52;3.00;;;0.77;;
77775;SDS011;66965;43.328;6.668;2023-04-15T03:11:18;0.57;;;0.40;;
77775;SDS011;66965;43.328;6.668;2023-04-15T03:13:44;1.10;;;0.60;;
77775;SDS011;66965;43.328;6.668;2023-04-15T03:16:09;4.35;;;0.60;;
77775;SDS011;66965;43.328;6.668;2023-04-15T03:18:35;1.15;;;0.40;;
77775;SDS011;66965;43.328;6.668;2023-04-15T03:21:00;0.52;;;0.30;;
77775;SDS011;66965;43.328;6.668;2023-04-15T03:23:26;1.88;;;0.60;;
77775;SDS011;66965;43.328;6.668;2023-04-15T03:25:52;0.88;;;0.50;;
77775;SDS011;66965;43.328;6.668;2023-04-15T03:28:21;1.67;;;0.50;;
77775;SDS011;66965;43.328;6.668;2023-04-15T03:30:46;1.48;;;0.52;;
77775;SDS011;66965;43.328;6.668;2023-04-15T03:33:11;1.30;;;0.55;;
77775;SDS011;66965;43.328;6.668;2023-04-15T03:35:37;1.77;;;0.80;;
77775;SDS011;66965;43.328;6.668;2023-04-15T03:38:02;2.65;;;0.55;;
77775;SDS011;66965;43.328;6.668;2023-04-15T03:40:28;1.20;;;0.70;;
77775;SDS011;66965;43.328;6.668;2023-04-15T03:42:53;1.92;;;0.60;;
77775;SDS011;66965;43.328;6.668;2023-04-15T03:45:19;0.75;;;0.40;;
77775;SDS011;66965;43.328;6.668;2023-04-15T03:47:44;1.40;;;0.57;;
77775;SDS011;66965;43.328;6.668;2023-04-15T03:50:10;0.50;;;0.32;;
77775;SDS011;66965;43.328;6.668;2023-04-15T03:52:36;0.82;;;0.50;;
77775;SDS011;66965;43.328;6.668;2023-04-15T03:55:01;0.57;;;0.40;;
77775;SDS011;66965;43.328;6.668;2023-04-15T03:57:27;1.65;;;0.60;;
77775;SDS011;66965;43.328;6.668;2023-04-15T03:59:52;0.68;;;0.30;;
77775;SDS011;66965;43.328;6.668;2023-04-15T04:02:18;3.15;;;0.70;;
77775;SDS011;66965;43.328;6.668;2023-04-15T04:04:43;0.93;;;0.43;;
77775;SDS011;66965;43.328;6.668;2023-04-15T04:07:13;1.30;;;0.70;;
77775;SDS011;66965;43.328;6.668;2023-04-15T04:09:40;0.93;;;0.40;;
77775;SDS011;66965;43.328;6.668;2023-04-15T04:12:06;1.75;;;0.40;;
77775;SDS011;66965;43.328;6.668;2023-04-15T04:14:31;0.30;;;0.25;;
77775;SDS011;66965;43.328;6.668;2023-04-15T04:16:57;1.08;;;0.50;;
77775;SDS011;66965;43.328;6.668;2023-04-15T04:19:22;1.50;;;0.47;;
77775;SDS011;66965;43.328;6.668;2023-04-15T04:21:47;2.47;;;0.50;;
77775;SDS011;66965;43.328;6.668;2023-04-15T04:24:13;1.83;;;0.35;;
77775;SDS011;66965;43.328;6.668;2023-04-15T04:26:38;1.90;;;0.60;;
77775;SDS011;66965;43.328;6.668;2023-04-15T04:29:04;0.55;;;0.20;;
77775;SDS011;66965;43.328;6.668;2023-04-15T04:31:29;0.98;;;0.30;;
77775;SDS011;66965;43.328;6.668;2023-04-15T04:33:55;1.95;;;0.60;;
77775;SDS011;66965;43.328;6.668;2023-04-15T04:36:20;0.70;;;0.40;;
77775;SDS011;66965;43.328;6.668;2023-04-15T04:38:45;1.83;;;0.52;;
77775;SDS011;66965;43.328;6.668;2023-04-15T04:41:11;29.25;;;1.58;;
77775;SDS011;66965;43.328;6.668;2023-04-15T04:43:36;1.80;;;0.60;;
77775;SDS011;66965;43.328;6.668;2023-04-15T04:46:02;1.42;;;0.50;;
77775;SDS011;66965;43.328;6.668;2023-04-15T04:48:27;1.73;;;0.52;;
77775;SDS011;66965;43.328;6.668;2023-04-15T04:50:52;0.30;;;0.22;;
77775;SDS011;66965;43.328;6.668;2023-04-15T04:53:18;0.90;;;0.40;;
77775;SDS011;66965;43.328;6.668;2023-04-15T04:55:44;0.82;;;0.40;;
77775;SDS011;66965;43.328;6.668;2023-04-15T04:58:09;0.43;;;0.40;;
77775;SDS011;66965;43.328;6.668;2023-04-15T05:00:35;0.57;;;0.30;;
77775;SDS011;66965;43.328;6.668;2023-04-15T05:03:02;1.50;;;0.60;;
77775;SDS011;66965;43.328;6.668;2023-04-15T05:05:28;1.27;;;0.70;;
77775;SDS011;66965;43.328;6.668;2023-04-15T05:07:53;1.35;;;0.50;;
77775;SDS011;66965;43.328;6.668;2023-04-15T05:10:19;2.22;;;0.57;;
77775;SDS011;66965;43.328;6.668;2023-04-15T05:12:45;1.20;;;0.40;;
77775;SDS011;66965;43.328;6.668;2023-04-15T05:15:10;0.77;;;0.35;;
77775;SDS011;66965;43.328;6.668;2023-04-15T05:17:36;1.17;;;0.43;;
77775;SDS011;66965;43.328;6.668;2023-04-15T05:20:01;1.60;;;0.47;;
77775;SDS011;66965;43.328;6.668;2023-04-15T05:22:27;0.40;;;0.30;;
77775;SDS011;66965;43.328;6.668;2023-04-15T05:24:53;1.50;;;0.50;;
77775;SDS011;66965;43.328;6.668;2023-04-15T05:27:18;1.85;;;0.50;;
77775;SDS011;66965;43.328;6.668;2023-04-15T05:29:44;0.47;;;0.20;;
77775;SDS011;66965;43.328;6.668;2023-04-15T05:32:10;1.25;;;0.40;;
77775;SDS011;66965;43.328;6.668;2023-04-15T05:34:36;2.58;;;0.50;;
77775;SDS011;66965;43.328;6.668;2023-04-15T05:37:01;0.90;;;0.38;;
77775;SDS011;66965;43.328;6.668;2023-04-15T05:39:26;2.67;;;0.55;;
77775;SDS011;66965;43.328;6.668;2023-04-15T05:41:52;2.67;;;0.68;;
77775;SDS011;66965;43.328;6.668;2023-04-15T05:44:17;0.68;;;0.40;;
77775;SDS011;66965;43.328;6.668;2023-04-15T05:46:43;3.20;;;0.70;;
77775;SDS011;66965;43.328;6.668;2023-04-15T05:49:08;1.02;;;0.50;;
77775;SDS011;66965;43.328;6.668;2023-04-15T05:51:34;2.20;;;0.90;;
77775;SDS011;66965;43.328;6.668;2023-04-15T05:54:00;1.77;;;0.50;;
77775;SDS011;66965;43.328;6.668;2023-04-15T05:56:26;1.73;;;0.60;;
77775;SDS011;66965;43.328;6.668;2023-04-15T05:58:51;1.00;;;0.47;;
77775;SDS011;66965;43.328;6.668;2023-04-15T06:01:17;0.95;;;0.30;;
77775;SDS011;66965;43.328;6.668;2023-04-15T06:03:42;4.85;;;0.73;;
77775;SDS011;66965;43.328;6.668;2023-04-15T06:06:08;1.80;;;0.40;;
77775;SDS011;66965;43.328;6.668;2023-04-15T06:08:34;1.45;;;0.40;;
77775;SDS011;66965;43.328;6.668;2023-04-15T06:10:59;0.90;;;0.45;;
77775;SDS011;66965;43.328;6.668;2023-04-15T06:13:25;2.08;;;0.20;;
77775;SDS011;66965;43.328;6.668;2023-04-15T06:15:51;0.93;;;0.60;;
77775;SDS011;66965;43.328;6.668;2023-04-15T06:18:17;1.33;;;0.45;;
77775;SDS011;66965;43.328;6.668;2023-04-15T06:20:44;1.13;;;0.60;;
77775;SDS011;66965;43.328;6.668;2023-04-15T06:23:10;1.23;;;0.50;;
77775;SDS011;66965;43.328;6.668;2023-04-15T06:25:35;1.02;;;0.30;;
77775;SDS011;66965;43.328;6.668;2023-04-15T06:28:00;1.73;;;0.52;;
77775;SDS011;66965;43.328;6.668;2023-04-15T06:30:26;1.40;;;0.63;;
77775;SDS011;66965;43.328;6.668;2023-04-15T06:32:51;1.55;;;0.50;;
77775;SDS011;66965;43.328;6.668;2023-04-15T06:35:17;1.27;;;0.50;;
77775;SDS011;66965;43.328;6.668;2023-04-15T06:37:43;1.10;;;0.47;;
77775;SDS011;66965;43.328;6.668;2023-04-15T06:40:08;1.70;;;0.43;;
77775;SDS011;66965;43.328;6.668;2023-04-15T06:42:34;1.02;;;0.50;;
77775;SDS011;66965;43.328;6.668;2023-04-15T06:45:02;1.02;;;0.38;;
77775;SDS011;66965;43.328;6.668;2023-04-15T06:47:28;0.95;;;0.30;;
77775;SDS011;66965;43.328;6.668;2023-04-15T06:49:53;1.02;;;0.40;;
77775;SDS011;66965;43.328;6.668;2023-04-15T06:52:18;1.10;;;0.52;;
77775;SDS011;66965;43.328;6.668;2023-04-15T06:54:44;2.08;;;0.40;;
77775;SDS011;66965;43.328;6.668;2023-04-15T06:57:09;1.58;;;0.65;;
77775;SDS011;66965;43.328;6.668;2023-04-15T06:59:35;2.33;;;0.50;;
77775;SDS011;66965;43.328;6.668;2023-04-15T07:02:00;1.38;;;0.60;;
77775;SDS011;66965;43.328;6.668;2023-04-15T07:04:26;2.38;;;0.60;;
77775;SDS011;66965;43.328;6.668;2023-04-15T07:06:52;2.70;;;0.70;;
77775;SDS011;66965;43.328;6.668;2023-04-15T07:09:19;0.95;;;0.35;;
77775;SDS011;66965;43.328;6.668;2023-04-15T07:11:45;1.17;;;0.47;;
77775;SDS011;66965;43.328;6.668;2023-04-15T07:14:11;0.88;;;0.40;;
77775;SDS011;66965;43.328;6.668;2023-04-15T07:16:36;1.45;;;0.52;;
77775;SDS011;66965;43.328;6.668;2023-04-15T07:19:01;2.00;;;0.90;;
77775;SDS011;66965;43.328;6.668;2023-04-15T07:21:27;0.52;;;0.40;;
77775;SDS011;66965;43.328;6.668;2023-04-15T07:23:53;1.10;;;0.50;;
77775;SDS011;66965;43.328;6.668;2023-04-15T07:26:19;5.63;;;0.80;;
77775;SDS011;66965;43.328;6.668;2023-04-15T07:28:44;2.00;;;0.55;;
77775;SDS011;66965;43.328;6.668;2023-04-15T07:31:11;2.03;;;0.52;;
77775;SDS011;66965;43.328;6.668;2023-04-15T07:33:37;0.65;;;0.40;;
77775;SDS011;66965;43.328;6.668;2023-04-15T07:36:02;1.58;;;0.28;;
77775;SDS011;66965;43.328;6.668;2023-04-15T07:38:27;1.50;;;0.52;;
77775;SDS011;66965;43.328;6.668;2023-04-15T07:40:53;1.02;;;0.50;;
77775;SDS011;66965;43.328;6.668;2023-04-15T07:43:19;3.05;;;0.60;;
77775;SDS011;66965;43.328;6.668;2023-04-15T07:45:45;0.60;;;0.22;;
77775;SDS011;66965;43.328;6.668;2023-04-15T07:48:10;0.77;;;0.30;;
77775;SDS011;66965;43.328;6.668;2023-04-15T07:50:36;1.17;;;0.45;;
77775;SDS011;66965;43.328;6.668;2023-04-15T07:53:02;1.33;;;0.50;;
77775;SDS011;66965;43.328;6.668;2023-04-15T07:55:27;0.63;;;0.32;;
77775;SDS011;66965;43.328;6.668;2023-04-15T07:57:54;1.80;;;0.50;;
77775;SDS011;66965;43.328;6.668;2023-04-15T08:00:20;0.47;;;0.28;;
77775;SDS011;66965;43.328;6.668;2023-04-15T08:02:46;1.13;;;0.47;;
77775;SDS011;66965;43.328;6.668;2023-04-15T08:07:38;2.30;;;0.40;;
77775;SDS011;66965;43.328;6.668;2023-04-15T08:10:04;1.75;;;0.50;;
77775;SDS011;66965;43.328;6.668;2023-04-15T08:14:55;1.85;;;0.50;;
77775;SDS011;66965;43.328;6.668;2023-04-15T08:17:21;0.52;;;0.30;;
77775;SDS011;66965;43.328;6.668;2023-04-15T08:19:47;1.40;;;0.40;;
77775;SDS011;66965;43.328;6.668;2023-04-15T08:22:12;3.42;;;0.98;;
77775;SDS011;66965;43.328;6.668;2023-04-15T08:24:38;1.58;;;0.50;;
77775;SDS011;66965;43.328;6.668;2023-04-15T08:29:30;0.90;;;0.43;;
77775;SDS011;66965;43.328;6.668;2023-04-15T08:31:56;5.07;;;0.60;;
77775;SDS011;66965;43.328;6.668;2023-04-15T08:34:23;1.60;;;0.32;;
77775;SDS011;66965;43.328;6.668;2023-04-15T08:36:48;0.77;;;0.43;;
77775;SDS011;66965;43.328;6.668;2023-04-15T08:39:14;1.88;;;0.65;;
77775;SDS011;66965;43.328;6.668;2023-04-15T08:41:44;2.35;;;0.70;;
77775;SDS011;66965;43.328;6.668;2023-04-15T08:46:38;1.30;;;0.50;;
77775;SDS011;66965;43.328;6.668;2023-04-15T08:49:07;0.90;;;0.57;;
77775;SDS011;66965;43.328;6.668;2023-04-15T08:51:35;1.15;;;0.40;;
77775;SDS011;66965;43.328;6.668;2023-04-15T08:54:02;0.65;;;0.30;;
77775;SDS011;66965;43.328;6.668;2023-04-15T08:56:29;1.75;;;0.50;;
77775;SDS011;66965;43.328;6.668;2023-04-15T08:58:56;0.82;;;0.50;;
77775;SDS011;66965;43.328;6.668;2023-04-15T09:01:23;1.58;;;0.40;;
77775;SDS011;66965;43.328;6.668;2023-04-15T09:03:49;2.40;;;0.40;;
77775;SDS011;66965;43.328;6.668;2023-04-15T09:06:15;0.80;;;0.38;;
77775;SDS011;66965;43.328;6.668;2023-04-15T09:08:42;2.28;;;0.50;;
77775;SDS011;66965;43.328;6.668;2023-04-15T09:11:07;1.15;;;0.40;;
77775;SDS011;66965;43.328;6.668;2023-04-15T09:13:33;1.10;;;0.50;;
77775;SDS011;66965;43.328;6.668;2023-04-15T09:16:00;2.58;;;0.43;;
77775;SDS011;66965;43.328;6.668;2023-04-15T09:18:31;4.05;;;0.70;;
77775;SDS011;66965;43.328;6.668;2023-04-15T09:21:11;0.95;;;0.38;;
77775;SDS011;66965;43.328;6.668;2023-04-15T09:23:39;0.77;;;0.25;;
77775;SDS011;66965;43.328;6.668;2023-04-15T09:26:17;2.40;;;0.60;;
77775;SDS011;66965;43.328;6.668;2023-04-15T09:28:43;1.83;;;0.50;;
77775;SDS011;66965;43.328;6.668;2023-04-15T09:31:08;1.70;;;0.63;;
77775;SDS011;66965;43.328;6.668;2023-04-15T09:36:03;1.15;;;0.47;;
77775;SDS011;66965;43.328;6.668;2023-04-15T09:38:30;2.60;;;0.38;;
77775;SDS011;66965;43.328;6.668;2023-04-15T09:40:56;2.65;;;0.60;;
77775;SDS011;66965;43.328;6.668;2023-04-15T09:43:22;1.73;;;0.43;;
77775;SDS011;66965;43.328;6.668;2023-04-15T09:46:01;1.55;;;0.82;;
77775;SDS011;66965;43.328;6.668;2023-04-15T09:48:26;0.80;;;0.30;;
77775;SDS011;66965;43.328;6.668;2023-04-15T09:50:53;1.95;;;0.52;;
77775;SDS011;66965;43.328;6.668;2023-04-15T09:53:22;1.00;;;0.30;;
77775;SDS011;66965;43.328;6.668;2023-04-15T09:58:19;0.75;;;0.40;;
77775;SDS011;66965;43.328;6.668;2023-04-15T10:00:46;6.18;;;1.98;;
77775;SDS011;66965;43.328;6.668;2023-04-15T10:03:13;2.65;;;0.38;;
77775;SDS011;66965;43.328;6.668;2023-04-15T10:05:46;1.55;;;0.30;;
77775;SDS011;66965;43.328;6.668;2023-04-15T10:08:15;0.85;;;0.35;;
77775;SDS011;66965;43.328;6.668;2023-04-15T10:10:43;1.52;;;0.30;;
77775;SDS011;66965;43.328;6.668;2023-04-15T10:13:09;2.95;;;0.50;;
77775;SDS011;66965;43.328;6.668;2023-04-15T10:15:37;0.95;;;0.47;;
77775;SDS011;66965;43.328;6.668;2023-04-15T10:18:03;3.50;;;0.55;;
77775;SDS011;66965;43.328;6.668;2023-04-15T10:20:32;1.42;;;0.40;;
77775;SDS011;66965;43.328;6.668;2023-04-15T10:22:59;1.70;;;0.40;;
77775;SDS011;66965;43.328;6.668;2023-04-15T10:25:26;1.25;;;0.30;;
77775;SDS011;66965;43.328;6.668;2023-04-15T10:27:53;1.50;;;0.73;;
77775;SDS011;66965;43.328;6.668;2023-04-15T10:30:20;1.40;;;0.40;;
77775;SDS011;66965;43.328;6.668;2023-04-15T10:32:46;0.75;;;0.30;;
77775;SDS011;66965;43.328;6.668;2023-04-15T10:35:13;1.05;;;0.40;;
77775;SDS011;66965;43.328;6.668;2023-04-15T10:37:40;3.90;;;0.60;;
77775;SDS011;66965;43.328;6.668;2023-04-15T10:40:25;0.90;;;0.40;;
77775;SDS011;66965;43.328;6.668;2023-04-15T10:42:59;1.13;;;0.30;;
77775;SDS011;66965;43.328;6.668;2023-04-15T10:45:35;3.30;;;0.70;;
77775;SDS011;66965;43.328;6.668;2023-04-15T10:48:02;2.78;;;0.47;;
77775;SDS011;66965;43.328;6.668;2023-04-15T10:50:30;1.92;;;0.60;;
77775;SDS011;66965;43.328;6.668;2023-04-15T10:52:57;6.35;;;0.77;;
77775;SDS011;66965;43.328;6.668;2023-04-15T10:57:50;1.77;;;0.35;;
77775;SDS011;66965;43.328;6.668;2023-04-15T11:00:18;1.85;;;0.50;;
77775;SDS011;66965;43.328;6.668;2023-04-15T11:02:50;2.60;;;0.63;;
77775;SDS011;66965;43.328;6.668;2023-04-15T11:05:21;0.70;;;0.25;;
77775;SDS011;66965;43.328;6.668;2023-04-15T11:07:51;1.75;;;0.45;;
77775;SDS011;66965;43.328;6.668;2023-04-15T11:12:50;0.50;;;0.50;;
77775;SDS011;66965;43.328;6.668;2023-04-15T11:18:08;4.45;;;0.80;;
77775;SDS011;66965;43.328;6.668;2023-04-15T11:20:40;6.28;;;0.80;;
77775;SDS011;66965;43.328;6.668;2023-04-15T11:23:07;0.50;;;0.30;;
77775;SDS011;66965;43.328;6.668;2023-04-15T11:25:33;2.92;;;0.68;;
77775;SDS011;66965;43.328;6.668;2023-04-15T11:28:01;2.58;;;0.68;;
77775;SDS011;66965;43.328;6.668;2023-04-15T11:30:28;5.00;;;0.50;;
77775;SDS011;66965;43.328;6.668;2023-04-15T11:33:04;1.60;;;0.88;;
77775;SDS011;66965;43.328;6.668;2023-04-15T11:35:31;1.75;;;0.57;;
77775;SDS011;66965;43.328;6.668;2023-04-15T11:38:01;0.77;;;0.32;;
77775;SDS011;66965;43.328;6.668;2023-04-15T11:40:28;1.33;;;0.50;;
77775;SDS011;66965;43.328;6.668;2023-04-15T11:45:29;1.35;;;0.30;;
77775;SDS011;66965;43.328;6.668;2023-04-15T11:48:03;0.88;;;0.70;;
77775;SDS011;66965;43.328;6.668;2023-04-15T11:50:29;0.35;;;0.10;;
77775;SDS011;66965;43.328;6.668;2023-04-15T11:52:56;13.60;;;0.95;;
77775;SDS011;66965;43.328;6.668;2023-04-15T11:55:23;0.52;;;0.35;;
77775;SDS011;66965;43.328;6.668;2023-04-15T11:58:07;0.68;;;0.22;;
77775;SDS011;66965;43.328;6.668;2023-04-15T12:11:29;1.70;;;0.30;;
77775;SDS011;66965;43.328;6.668;2023-04-15T12:13:56;4.25;;;0.52;;
77775;SDS011;66965;43.328;6.668;2023-04-15T12:16:27;1.05;;;0.30;;
77775;SDS011;66965;43.328;6.668;2023-04-15T12:18:53;0.60;;;0.30;;
77775;SDS011;66965;43.328;6.668;2023-04-15T12:21:21;6.72;;;0.70;;
77775;SDS011;66965;43.328;6.668;2023-04-15T12:23:51;1.60;;;0.50;;
77775;SDS011;66965;43.328;6.668;2023-04-15T12:26:17;0.20;;;0.20;;
77775;SDS011;66965;43.328;6.668;2023-04-15T12:28:52;0.77;;;0.35;;
77775;SDS011;66965;43.328;6.668;2023-04-15T12:31:34;1.27;;;0.50;;
77775;SDS011;66965;43.328;6.668;2023-04-15T12:34:02;1.05;;;0.30;;
77775;SDS011;66965;43.328;6.668;2023-04-15T12:36:31;1.75;;;0.25;;
77775;SDS011;66965;43.328;6.668;2023-04-15T12:39:01;1.38;;;0.32;;
77775;SDS011;66965;43.328;6.668;2023-04-15T12:41:28;3.50;;;0.50;;
77775;SDS011;66965;43.328;6.668;2023-04-15T12:46:19;1.00;;;0.40;;
77775;SDS011;66965;43.328;6.668;2023-04-15T12:51:10;1.45;;;0.50;;
77775;SDS011;66965;43.328;6.668;2023-04-15T12:53:35;0.30;;;0.20;;
77775;SDS011;66965;43.328;6.668;2023-04-15T12:56:01;0.40;;;0.20;;
77775;SDS011;66965;43.328;6.668;2023-04-15T13:00:52;1.95;;;0.30;;
77775;SDS011;66965;43.328;6.668;2023-04-15T13:03:17;1.92;;;0.40;;
77775;SDS011;66965;43.328;6.668;2023-04-15T13:05:43;5.07;;;0.55;;
77775;SDS011;66965;43.328;6.668;2023-04-15T13:10:34;1.07;;;0.40;;
77775;SDS011;66965;43.328;6.668;2023-04-15T13:13:02;1.90;;;0.30;;
77775;SDS011;66965;43.328;6.668;2023-04-15T13:17:53;3.73;;;0.80;;
77775;SDS011;66965;43.328;6.668;2023-04-15T13:20:19;2.55;;;0.43;;
77775;SDS011;66965;43.328;6.668;2023-04-15T13:22:44;5.63;;;1.02;;
77775;SDS011;66965;43.328;6.668;2023-04-15T13:27:35;8.05;;;1.33;;
77775;SDS011;66965;43.328;6.668;2023-04-15T13:30:01;3.28;;;0.25;;
77775;SDS011;66965;43.328;6.668;2023-04-15T13:32:27;3.83;;;0.88;;
77775;SDS011;66965;43.328;6.668;2023-04-15T13:34:52;5.40;;;0.80;;
77775;SDS011;66965;43.328;6.668;2023-04-15T13:37:24;18.90;;;2.72;;
77775;SDS011;66965;43.328;6.668;2023-04-15T13:39:51;5.72;;;0.68;;
77775;SDS011;66965;43.328;6.668;2023-04-15T13:42:16;18.67;;;1.63;;
77775;SDS011;66965;43.328;6.668;2023-04-15T13:44:42;5.75;;;0.73;;
77775;SDS011;66965;43.328;6.668;2023-04-15T13:47:07;1.63;;;0.28;;
77775;SDS011;66965;43.328;6.668;2023-04-15T13:49:33;7.03;;;1.20;;
77775;SDS011;66965;43.328;6.668;2023-04-15T13:51:58;5.28;;;0.50;;
77775;SDS011;66965;43.328;6.668;2023-04-15T13:56:49;1.45;;;0.45;;
77775;SDS011;66965;43.328;6.668;2023-04-15T13:59:14;3.83;;;0.70;;
77775;SDS011;66965;43.328;6.668;2023-04-15T14:01:40;3.50;;;0.70;;
77775;SDS011;66965;43.328;6.668;2023-04-15T14:04:05;0.25;;;0.20;;
77775;SDS011;66965;43.328;6.668;2023-04-15T14:08:56;1.37;;;0.10;;
77775;SDS011;66965;43.328;6.668;2023-04-15T14:11:21;9.02;;;0.85;;
77775;SDS011;66965;43.328;6.668;2023-04-15T14:13:47;1.05;;;0.30;;
77775;SDS011;66965;43.328;6.668;2023-04-15T14:16:12;5.30;;;0.75;;
77775;SDS011;66965;43.328;6.668;2023-04-15T14:18:38;2.33;;;0.22;;
77775;SDS011;66965;43.328;6.668;2023-04-15T14:21:04;0.50;;;0.25;;
77775;SDS011;66965;43.328;6.668;2023-04-15T14:23:31;3.40;;;0.43;;
77775;SDS011;66965;43.328;6.668;2023-04-15T14:25:56;1.05;;;0.20;;
77775;SDS011;66965;43.328;6.668;2023-04-15T14:28:22;0.60;;;0.30;;
77775;SDS011;66965;43.328;6.668;2023-04-15T14:30:48;11.95;;;1.95;;
77775;SDS011;66965;43.328;6.668;2023-04-15T14:33:14;12.60;;;3.03;;
77775;SDS011;66965;43.328;6.668;2023-04-15T14:35:39;10.50;;;1.60;;
77775;SDS011;66965;43.328;6.668;2023-04-15T14:38:05;8.70;;;1.58;;
77775;SDS011;66965;43.328;6.668;2023-04-15T14:40:34;13.73;;;2.80;;
77775;SDS011;66965;43.328;6.668;2023-04-15T14:43:00;19.35;;;2.75;;
77775;SDS011;66965;43.328;6.668;2023-04-15T14:45:25;10.13;;;1.77;;
77775;SDS011;66965;43.328;6.668;2023-04-15T14:47:50;9.93;;;1.20;;
77775;SDS011;66965;43.328;6.668;2023-04-15T14:50:17;15.07;;;2.80;;
77775;SDS011;66965;43.328;6.668;2023-04-15T14:52:43;43.30;;;6.68;;
77775;SDS011;66965;43.328;6.668;2023-04-15T14:55:09;59.55;;;6.40;;
77775;SDS011;66965;43.328;6.668;2023-04-15T14:57:38;45.40;;;7.53;;
77775;SDS011;66965;43.328;6.668;2023-04-15T15:00:05;24.55;;;3.67;;
77775;SDS011;66965;43.328;6.668;2023-04-15T15:02:33;19.25;;;2.40;;
77775;SDS011;66965;43.328;6.668;2023-04-15T15:07:25;8.93;;;2.50;;
77775;SDS011;66965;43.328;6.668;2023-04-15T15:09:51;6.50;;;1.02;;
77775;SDS011;66965;43.328;6.668;2023-04-15T15:12:16;5.25;;;1.00;;
77775;SDS011;66965;43.328;6.668;2023-04-15T15:14:47;2.35;;;0.77;;
77775;SDS011;66965;43.328;6.668;2023-04-15T15:17:13;1.38;;;0.40;;
77775;SDS011;66965;43.328;6.668;2023-04-15T15:19:38;4.25;;;0.60;;
77775;SDS011;66965;43.328;6.668;2023-04-15T15:22:04;2.92;;;0.65;;
77775;SDS011;66965;43.328;6.668;2023-04-15T15:24:29;2.03;;;0.32;;
77775;SDS011;66965;43.328;6.668;2023-04-15T15:26:55;1.83;;;0.30;;
77775;SDS011;66965;43.328;6.668;2023-04-15T15:29:21;4.10;;;0.40;;
77775;SDS011;66965;43.328;6.668;2023-04-15T15:31:47;3.40;;;0.68;;
77775;SDS011;66965;43.328;6.668;2023-04-15T15:34:12;0.10;;;0.10;;
77775;SDS011;66965;43.328;6.668;2023-04-15T15:36:38;2.13;;;0.50;;
77775;SDS011;66965;43.328;6.668;2023-04-15T15:39:05;10.85;;;1.40;;
77775;SDS011;66965;43.328;6.668;2023-04-15T15:41:31;4.15;;;0.75;;
77775;SDS011;66965;43.328;6.668;2023-04-15T15:43:57;21.10;;;3.50;;
77775;SDS011;66965;43.328;6.668;2023-04-15T15:46:25;25.15;;;2.42;;
77775;SDS011;66965;43.328;6.668;2023-04-15T15:48:52;6.53;;;0.70;;